sensor_id;sensor_type;location;lat;lon;timestamp;P1;durP1;ratioP1;P2;durP2;ratioP2
4278;SDS011;2153;47.744;10.580;2022-07-10T00:02:27;14.60;;;2.70;;
4278;SDS011;2153;47.744;10.580;2022-07-10T00:04:53;13.00;;;2.73;;
4278;SDS011;2153;47.744;10.580;2022-07-10T00:07:20;13.10;;;2.50;;
4278;SDS011;2153;47.744;10.580;2022-07-10T00:09:47;13.20;;;2.93;;
4278;SDS011;2153;47.744;10.580;2022-07-10T00:12:13;25.13;;;3.53;;
4278;SDS011;2153;47.744;10.580;2022-07-10T00:14:41;15.33;;;3.07;;
4278;SDS011;2153;47.744;10.580;2022-07-10T00:17:08;17.77;;;2.70;;
4278;SDS011;2153;47.744;10.580;2022-07-10T00:19:35;12.97;;;2.70;;
4278;SDS011;2153;47.744;10.580;2022-07-10T00:22:02;14.70;;;2.97;;
4278;SDS011;2153;47.744;10.580;2022-07-10T00:24:29;14.40;;;3.10;;
4278;SDS011;2153;47.744;10.580;2022-07-10T00:26:56;14.03;;;3.10;;
4278;SDS011;2153;47.744;10.580;2022-07-10T00:29:23;14.87;;;2.80;;
4278;SDS011;2153;47.744;10.580;2022-07-10T00:31:51;13.00;;;2.73;;
4278;SDS011;2153;47.744;10.580;2022-07-10T00:34:18;15.97;;;3.57;;
4278;SDS011;2153;47.744;10.580;2022-07-10T00:36:45;13.97;;;3.43;;
4278;SDS011;2153;47.744;10.580;2022-07-10T00:39:12;18.13;;;3.73;;
4278;SDS011;2153;47.744;10.580;2022-07-10T00:41:39;13.97;;;4.10;;
4278;SDS011;2153;47.744;10.580;2022-07-10T00:44:05;14.63;;;4.33;;
4278;SDS011;2153;47.744;10.580;2022-07-10T00:46:32;18.20;;;3.90;;
4278;SDS011;2153;47.744;10.580;2022-07-10T00:49:01;14.87;;;4.37;;
4278;SDS011;2153;47.744;10.580;2022-07-10T00:51:29;17.00;;;4.47;;
4278;SDS011;2153;47.744;10.580;2022-07-10T00:53:56;17.17;;;5.10;;
4278;SDS011;2153;47.744;10.580;2022-07-10T00:56:24;16.60;;;5.43;;
4278;SDS011;2153;47.744;10.580;2022-07-10T00:58:52;16.20;;;5.17;;
4278;SDS011;2153;47.744;10.580;2022-07-10T01:01:19;15.93;;;5.30;;
4278;SDS011;2153;47.744;10.580;2022-07-10T01:03:47;18.83;;;5.50;;
4278;SDS011;2153;47.744;10.580;2022-07-10T01:06:16;18.07;;;5.50;;
4278;SDS011;2153;47.744;10.580;2022-07-10T01:08:43;17.87;;;5.77;;
4278;SDS011;2153;47.744;10.580;2022-07-10T01:11:11;18.63;;;6.10;;
4278;SDS011;2153;47.744;10.580;2022-07-10T01:13:39;18.60;;;6.30;;
4278;SDS011;2153;47.744;10.580;2022-07-10T01:16:07;19.60;;;6.27;;
4278;SDS011;2153;47.744;10.580;2022-07-10T01:18:34;19.13;;;6.27;;
4278;SDS011;2153;47.744;10.580;2022-07-10T01:21:02;27.83;;;7.57;;
4278;SDS011;2153;47.744;10.580;2022-07-10T01:23:28;20.70;;;7.07;;
4278;SDS011;2153;47.744;10.580;2022-07-10T01:25:55;21.37;;;9.00;;
4278;SDS011;2153;47.744;10.580;2022-07-10T01:28:22;22.67;;;10.53;;
4278;SDS011;2153;47.744;10.580;2022-07-10T01:30:49;22.00;;;10.60;;
4278;SDS011;2153;47.744;10.580;2022-07-10T01:33:15;24.00;;;10.90;;
4278;SDS011;2153;47.744;10.580;2022-07-10T01:35:42;25.10;;;12.60;;
4278;SDS011;2153;47.744;10.580;2022-07-10T01:38:11;22.63;;;10.83;;
4278;SDS011;2153;47.744;10.580;2022-07-10T01:40:37;19.30;;;8.83;;
4278;SDS011;2153;47.744;10.580;2022-07-10T01:43:04;18.93;;;8.30;;
4278;SDS011;2153;47.744;10.580;2022-07-10T01:45:32;20.50;;;9.20;;
4278;SDS011;2153;47.744;10.580;2022-07-10T01:47:59;25.87;;;8.27;;
4278;SDS011;2153;47.744;10.580;2022-07-10T01:50:26;18.57;;;7.60;;
4278;SDS011;2153;47.744;10.580;2022-07-10T01:52:52;17.83;;;6.90;;
4278;SDS011;2153;47.744;10.580;2022-07-10T01:55:20;25.43;;;8.30;;
4278;SDS011;2153;47.744;10.580;2022-07-10T01:57:47;24.53;;;8.30;;
4278;SDS011;2153;47.744;10.580;2022-07-10T02:00:14;19.80;;;7.60;;
4278;SDS011;2153;47.744;10.580;2022-07-10T02:02:40;17.83;;;6.80;;
4278;SDS011;2153;47.744;10.580;2022-07-10T02:05:27;33.30;;;7.90;;
4278;SDS011;2153;47.744;10.580;2022-07-10T02:07:53;18.33;;;8.20;;
4278;SDS011;2153;47.744;10.580;2022-07-10T02:10:21;18.30;;;7.63;;
4278;SDS011;2153;47.744;10.580;2022-07-10T02:12:48;23.40;;;7.67;;
4278;SDS011;2153;47.744;10.580;2022-07-10T02:15:15;22.97;;;8.90;;
4278;SDS011;2153;47.744;10.580;2022-07-10T02:17:41;20.70;;;9.43;;
4278;SDS011;2153;47.744;10.580;2022-07-10T02:20:09;21.10;;;9.80;;
4278;SDS011;2153;47.744;10.580;2022-07-10T02:22:36;19.67;;;8.17;;
4278;SDS011;2153;47.744;10.580;2022-07-10T02:25:03;20.67;;;9.40;;
4278;SDS011;2153;47.744;10.580;2022-07-10T02:27:32;24.53;;;9.30;;
4278;SDS011;2153;47.744;10.580;2022-07-10T02:29:58;21.40;;;9.20;;
4278;SDS011;2153;47.744;10.580;2022-07-10T02:32:25;23.33;;;10.37;;
4278;SDS011;2153;47.744;10.580;2022-07-10T02:34:52;21.00;;;9.73;;
4278;SDS011;2153;47.744;10.580;2022-07-10T02:37:18;21.60;;;9.50;;
4278;SDS011;2153;47.744;10.580;2022-07-10T02:39:45;23.23;;;9.80;;
4278;SDS011;2153;47.744;10.580;2022-07-10T02:42:12;20.40;;;8.83;;
4278;SDS011;2153;47.744;10.580;2022-07-10T02:44:40;20.30;;;9.27;;
4278;SDS011;2153;47.744;10.580;2022-07-10T02:47:06;19.10;;;8.33;;
4278;SDS011;2153;47.744;10.580;2022-07-10T02:49:33;19.40;;;8.77;;
4278;SDS011;2153;47.744;10.580;2022-07-10T02:52:00;19.80;;;8.17;;
4278;SDS011;2153;47.744;10.580;2022-07-10T02:54:26;18.20;;;7.90;;
4278;SDS011;2153;47.744;10.580;2022-07-10T02:56:53;20.90;;;8.83;;
4278;SDS011;2153;47.744;10.580;2022-07-10T02:59:20;18.63;;;7.90;;
4278;SDS011;2153;47.744;10.580;2022-07-10T03:01:48;17.10;;;7.23;;
4278;SDS011;2153;47.744;10.580;2022-07-10T03:04:15;19.30;;;7.73;;
4278;SDS011;2153;47.744;10.580;2022-07-10T03:06:42;22.73;;;7.97;;
4278;SDS011;2153;47.744;10.580;2022-07-10T03:09:08;19.70;;;8.40;;
4278;SDS011;2153;47.744;10.580;2022-07-10T03:11:35;18.80;;;7.30;;
4278;SDS011;2153;47.744;10.580;2022-07-10T03:14:02;20.20;;;8.43;;
4278;SDS011;2153;47.744;10.580;2022-07-10T03:16:28;20.77;;;7.90;;
4278;SDS011;2153;47.744;10.580;2022-07-10T03:18:56;23.63;;;8.53;;
4278;SDS011;2153;47.744;10.580;2022-07-10T03:21:23;19.20;;;7.70;;
4278;SDS011;2153;47.744;10.580;2022-07-10T03:23:50;18.27;;;8.07;;
4278;SDS011;2153;47.744;10.580;2022-07-10T03:26:16;20.40;;;7.07;;
4278;SDS011;2153;47.744;10.580;2022-07-10T03:28:43;21.03;;;8.73;;
4278;SDS011;2153;47.744;10.580;2022-07-10T03:31:10;17.50;;;7.20;;
4278;SDS011;2153;47.744;10.580;2022-07-10T03:33:36;18.90;;;7.40;;
4278;SDS011;2153;47.744;10.580;2022-07-10T03:36:05;20.13;;;7.90;;
4278;SDS011;2153;47.744;10.580;2022-07-10T03:38:32;18.60;;;7.70;;
4278;SDS011;2153;47.744;10.580;2022-07-10T03:40:59;19.60;;;7.77;;
4278;SDS011;2153;47.744;10.580;2022-07-10T03:43:26;19.40;;;7.87;;
4278;SDS011;2153;47.744;10.580;2022-07-10T03:45:52;20.17;;;7.50;;
4278;SDS011;2153;47.744;10.580;2022-07-10T03:48:19;19.00;;;8.10;;
4278;SDS011;2153;47.744;10.580;2022-07-10T03:50:48;18.97;;;7.90;;
4278;SDS011;2153;47.744;10.580;2022-07-10T03:53:17;21.70;;;9.50;;
4278;SDS011;2153;47.744;10.580;2022-07-10T03:55:44;22.83;;;8.10;;
4278;SDS011;2153;47.744;10.580;2022-07-10T03:58:11;20.80;;;8.30;;
4278;SDS011;2153;47.744;10.580;2022-07-10T04:00:37;17.37;;;6.70;;
4278;SDS011;2153;47.744;10.580;2022-07-10T04:03:06;18.80;;;8.07;;
4278;SDS011;2153;47.744;10.580;2022-07-10T04:05:33;19.97;;;9.00;;
4278;SDS011;2153;47.744;10.580;2022-07-10T04:08:00;19.30;;;8.00;;
4278;SDS011;2153;47.744;10.580;2022-07-10T04:10:29;20.57;;;8.17;;
4278;SDS011;2153;47.744;10.580;2022-07-10T04:12:57;21.23;;;9.17;;
4278;SDS011;2153;47.744;10.580;2022-07-10T04:15:24;19.57;;;8.27;;
4278;SDS011;2153;47.744;10.580;2022-07-10T04:17:51;23.30;;;8.57;;
4278;SDS011;2153;47.744;10.580;2022-07-10T04:20:18;26.90;;;8.27;;
4278;SDS011;2153;47.744;10.580;2022-07-10T04:22:45;22.50;;;9.03;;
4278;SDS011;2153;47.744;10.580;2022-07-10T04:25:12;23.37;;;8.73;;
4278;SDS011;2153;47.744;10.580;2022-07-10T04:27:40;24.20;;;9.20;;
4278;SDS011;2153;47.744;10.580;2022-07-10T04:30:07;19.03;;;8.80;;
4278;SDS011;2153;47.744;10.580;2022-07-10T04:32:34;23.40;;;8.70;;
4278;SDS011;2153;47.744;10.580;2022-07-10T04:35:02;21.20;;;9.17;;
4278;SDS011;2153;47.744;10.580;2022-07-10T04:37:29;20.80;;;9.40;;
4278;SDS011;2153;47.744;10.580;2022-07-10T04:39:56;19.63;;;8.73;;
4278;SDS011;2153;47.744;10.580;2022-07-10T04:42:22;19.77;;;8.30;;
4278;SDS011;2153;47.744;10.580;2022-07-10T04:44:50;24.90;;;8.03;;
4278;SDS011;2153;47.744;10.580;2022-07-10T04:47:17;19.50;;;8.87;;
4278;SDS011;2153;47.744;10.580;2022-07-10T04:49:44;19.17;;;8.67;;
4278;SDS011;2153;47.744;10.580;2022-07-10T04:52:11;19.60;;;8.17;;
4278;SDS011;2153;47.744;10.580;2022-07-10T04:54:37;19.40;;;7.40;;
4278;SDS011;2153;47.744;10.580;2022-07-10T04:57:04;19.43;;;8.83;;
4278;SDS011;2153;47.744;10.580;2022-07-10T04:59:31;18.47;;;8.37;;
4278;SDS011;2153;47.744;10.580;2022-07-10T05:01:59;18.03;;;7.90;;
4278;SDS011;2153;47.744;10.580;2022-07-10T05:04:26;23.20;;;9.40;;
4278;SDS011;2153;47.744;10.580;2022-07-10T05:06:53;19.10;;;8.10;;
4278;SDS011;2153;47.744;10.580;2022-07-10T05:09:19;20.67;;;8.53;;
4278;SDS011;2153;47.744;10.580;2022-07-10T05:11:46;19.70;;;8.40;;
4278;SDS011;2153;47.744;10.580;2022-07-10T05:14:13;19.60;;;8.63;;
4278;SDS011;2153;47.744;10.580;2022-07-10T05:16:41;20.10;;;8.23;;
4278;SDS011;2153;47.744;10.580;2022-07-10T05:19:09;24.10;;;9.23;;
4278;SDS011;2153;47.744;10.580;2022-07-10T05:21:36;21.07;;;9.43;;
4278;SDS011;2153;47.744;10.580;2022-07-10T05:24:03;20.93;;;10.10;;
4278;SDS011;2153;47.744;10.580;2022-07-10T05:26:29;19.23;;;8.67;;
4278;SDS011;2153;47.744;10.580;2022-07-10T05:28:56;29.90;;;10.07;;
4278;SDS011;2153;47.744;10.580;2022-07-10T05:31:23;23.00;;;10.30;;
4278;SDS011;2153;47.744;10.580;2022-07-10T05:33:49;21.43;;;9.87;;
4278;SDS011;2153;47.744;10.580;2022-07-10T05:36:17;20.53;;;9.17;;
4278;SDS011;2153;47.744;10.580;2022-07-10T05:38:44;20.00;;;9.10;;
4278;SDS011;2153;47.744;10.580;2022-07-10T05:41:11;18.73;;;8.47;;
4278;SDS011;2153;47.744;10.580;2022-07-10T05:43:37;18.30;;;7.73;;
4278;SDS011;2153;47.744;10.580;2022-07-10T05:46:04;20.40;;;9.03;;
4278;SDS011;2153;47.744;10.580;2022-07-10T05:48:31;20.67;;;9.20;;
4278;SDS011;2153;47.744;10.580;2022-07-10T05:50:58;21.37;;;8.33;;
4278;SDS011;2153;47.744;10.580;2022-07-10T05:53:26;23.93;;;9.20;;
4278;SDS011;2153;47.744;10.580;2022-07-10T05:55:53;20.87;;;8.00;;
4278;SDS011;2153;47.744;10.580;2022-07-10T05:58:19;21.97;;;9.10;;
4278;SDS011;2153;47.744;10.580;2022-07-10T06:00:46;21.93;;;9.07;;
4278;SDS011;2153;47.744;10.580;2022-07-10T06:03:14;18.80;;;8.13;;
4278;SDS011;2153;47.744;10.580;2022-07-10T06:05:41;18.87;;;8.10;;
4278;SDS011;2153;47.744;10.580;2022-07-10T06:08:10;19.90;;;8.67;;
4278;SDS011;2153;47.744;10.580;2022-07-10T06:10:38;22.93;;;9.37;;
4278;SDS011;2153;47.744;10.580;2022-07-10T06:13:06;21.33;;;8.40;;
4278;SDS011;2153;47.744;10.580;2022-07-10T06:15:33;20.90;;;7.93;;
4278;SDS011;2153;47.744;10.580;2022-07-10T06:17:59;22.47;;;8.43;;
4278;SDS011;2153;47.744;10.580;2022-07-10T06:20:26;20.10;;;8.60;;
4278;SDS011;2153;47.744;10.580;2022-07-10T06:22:54;19.30;;;7.60;;
4278;SDS011;2153;47.744;10.580;2022-07-10T06:25:20;19.03;;;8.83;;
4278;SDS011;2153;47.744;10.580;2022-07-10T06:27:49;22.87;;;9.57;;
4278;SDS011;2153;47.744;10.580;2022-07-10T06:30:15;23.20;;;10.60;;
4278;SDS011;2153;47.744;10.580;2022-07-10T06:32:42;22.63;;;9.40;;
4278;SDS011;2153;47.744;10.580;2022-07-10T06:35:10;21.37;;;9.27;;
4278;SDS011;2153;47.744;10.580;2022-07-10T06:37:37;21.40;;;9.90;;
4278;SDS011;2153;47.744;10.580;2022-07-10T06:40:04;22.80;;;9.57;;
4278;SDS011;2153;47.744;10.580;2022-07-10T06:42:31;22.00;;;9.13;;
4278;SDS011;2153;47.744;10.580;2022-07-10T06:44:59;23.80;;;9.60;;
4278;SDS011;2153;47.744;10.580;2022-07-10T06:47:26;22.47;;;9.90;;
4278;SDS011;2153;47.744;10.580;2022-07-10T06:50:10;23.83;;;9.00;;
4278;SDS011;2153;47.744;10.580;2022-07-10T06:52:37;21.97;;;10.20;;
4278;SDS011;2153;47.744;10.580;2022-07-10T06:55:04;24.80;;;9.97;;
4278;SDS011;2153;47.744;10.580;2022-07-10T06:57:32;22.40;;;9.80;;
4278;SDS011;2153;47.744;10.580;2022-07-10T07:00:00;19.50;;;8.93;;
4278;SDS011;2153;47.744;10.580;2022-07-10T07:02:27;21.00;;;9.73;;
4278;SDS011;2153;47.744;10.580;2022-07-10T07:04:53;20.50;;;9.47;;
4278;SDS011;2153;47.744;10.580;2022-07-10T07:07:20;23.03;;;9.97;;
4278;SDS011;2153;47.744;10.580;2022-07-10T07:09:47;21.27;;;9.47;;
4278;SDS011;2153;47.744;10.580;2022-07-10T07:12:15;20.97;;;9.10;;
4278;SDS011;2153;47.744;10.580;2022-07-10T07:14:42;21.63;;;8.60;;
4278;SDS011;2153;47.744;10.580;2022-07-10T07:17:10;19.80;;;9.70;;
4278;SDS011;2153;47.744;10.580;2022-07-10T07:19:39;20.93;;;9.20;;
4278;SDS011;2153;47.744;10.580;2022-07-10T07:22:24;19.93;;;8.80;;
4278;SDS011;2153;47.744;10.580;2022-07-10T07:25:05;19.80;;;9.50;;
4278;SDS011;2153;47.744;10.580;2022-07-10T07:27:33;23.40;;;9.70;;
4278;SDS011;2153;47.744;10.580;2022-07-10T07:30:04;23.70;;;9.37;;
4278;SDS011;2153;47.744;10.580;2022-07-10T07:32:33;22.23;;;9.47;;
4278;SDS011;2153;47.744;10.580;2022-07-10T07:35:00;20.67;;;9.37;;
4278;SDS011;2153;47.744;10.580;2022-07-10T07:37:37;21.13;;;9.67;;
4278;SDS011;2153;47.744;10.580;2022-07-10T07:40:05;22.43;;;9.20;;
4278;SDS011;2153;47.744;10.580;2022-07-10T07:42:32;18.07;;;7.80;;
4278;SDS011;2153;47.744;10.580;2022-07-10T07:44:59;23.63;;;10.33;;
4278;SDS011;2153;47.744;10.580;2022-07-10T07:47:26;20.23;;;8.47;;
4278;SDS011;2153;47.744;10.580;2022-07-10T07:49:54;23.67;;;8.27;;
4278;SDS011;2153;47.744;10.580;2022-07-10T07:52:21;17.47;;;7.20;;
4278;SDS011;2153;47.744;10.580;2022-07-10T07:54:48;17.97;;;7.50;;
4278;SDS011;2153;47.744;10.580;2022-07-10T07:57:15;17.80;;;7.10;;
4278;SDS011;2153;47.744;10.580;2022-07-10T07:59:42;18.83;;;7.70;;
4278;SDS011;2153;47.744;10.580;2022-07-10T08:02:09;17.10;;;7.07;;
4278;SDS011;2153;47.744;10.580;2022-07-10T08:04:36;18.70;;;6.13;;
4278;SDS011;2153;47.744;10.580;2022-07-10T08:07:04;17.83;;;6.90;;
4278;SDS011;2153;47.744;10.580;2022-07-10T08:09:30;18.80;;;7.70;;
4278;SDS011;2153;47.744;10.580;2022-07-10T08:11:57;19.23;;;7.10;;
4278;SDS011;2153;47.744;10.580;2022-07-10T08:14:24;17.60;;;6.50;;
4278;SDS011;2153;47.744;10.580;2022-07-10T08:16:50;19.63;;;7.40;;
4278;SDS011;2153;47.744;10.580;2022-07-10T08:19:17;22.17;;;6.87;;
4278;SDS011;2153;47.744;10.580;2022-07-10T08:21:44;18.30;;;6.30;;
4278;SDS011;2153;47.744;10.580;2022-07-10T08:24:12;24.00;;;7.20;;
4278;SDS011;2153;47.744;10.580;2022-07-10T08:26:39;17.80;;;7.20;;
4278;SDS011;2153;47.744;10.580;2022-07-10T08:29:06;17.73;;;6.97;;
4278;SDS011;2153;47.744;10.580;2022-07-10T08:31:33;17.33;;;7.23;;
4278;SDS011;2153;47.744;10.580;2022-07-10T08:34:00;18.37;;;6.60;;
4278;SDS011;2153;47.744;10.580;2022-07-10T08:36:28;16.23;;;6.37;;
4278;SDS011;2153;47.744;10.580;2022-07-10T08:38:54;17.10;;;6.50;;
4278;SDS011;2153;47.744;10.580;2022-07-10T08:41:24;22.03;;;6.00;;
4278;SDS011;2153;47.744;10.580;2022-07-10T08:43:52;16.00;;;5.70;;
4278;SDS011;2153;47.744;10.580;2022-07-10T08:46:19;16.33;;;5.77;;
4278;SDS011;2153;47.744;10.580;2022-07-10T08:48:46;18.10;;;5.70;;
4278;SDS011;2153;47.744;10.580;2022-07-10T08:51:16;15.90;;;6.00;;
4278;SDS011;2153;47.744;10.580;2022-07-10T08:53:49;19.73;;;5.93;;
4278;SDS011;2153;47.744;10.580;2022-07-10T08:56:17;24.07;;;6.27;;
4278;SDS011;2153;47.744;10.580;2022-07-10T08:58:45;17.03;;;6.40;;
4278;SDS011;2153;47.744;10.580;2022-07-10T09:01:13;18.47;;;6.50;;
4278;SDS011;2153;47.744;10.580;2022-07-10T09:03:40;16.87;;;6.40;;
4278;SDS011;2153;47.744;10.580;2022-07-10T09:06:07;17.30;;;6.53;;
4278;SDS011;2153;47.744;10.580;2022-07-10T09:08:34;16.70;;;6.27;;
4278;SDS011;2153;47.744;10.580;2022-07-10T09:11:12;19.37;;;6.63;;
4278;SDS011;2153;47.744;10.580;2022-07-10T09:13:49;16.20;;;5.80;;
4278;SDS011;2153;47.744;10.580;2022-07-10T09:16:20;21.73;;;6.93;;
4278;SDS011;2153;47.744;10.580;2022-07-10T09:18:49;17.70;;;6.60;;
4278;SDS011;2153;47.744;10.580;2022-07-10T09:21:15;20.53;;;7.03;;
4278;SDS011;2153;47.744;10.580;2022-07-10T09:23:42;18.17;;;6.40;;
4278;SDS011;2153;47.744;10.580;2022-07-10T09:26:09;22.80;;;7.03;;
4278;SDS011;2153;47.744;10.580;2022-07-10T09:28:35;20.57;;;7.20;;
4278;SDS011;2153;47.744;10.580;2022-07-10T09:31:04;17.37;;;7.53;;
4278;SDS011;2153;47.744;10.580;2022-07-10T09:33:31;23.00;;;6.97;;
4278;SDS011;2153;47.744;10.580;2022-07-10T09:36:00;17.93;;;7.20;;
4278;SDS011;2153;47.744;10.580;2022-07-10T09:38:36;23.50;;;7.60;;
4278;SDS011;2153;47.744;10.580;2022-07-10T09:41:15;18.20;;;7.30;;
4278;SDS011;2153;47.744;10.580;2022-07-10T09:43:44;17.77;;;7.47;;
4278;SDS011;2153;47.744;10.580;2022-07-10T09:46:12;19.00;;;7.10;;
4278;SDS011;2153;47.744;10.580;2022-07-10T09:48:39;18.57;;;7.23;;
4278;SDS011;2153;47.744;10.580;2022-07-10T09:51:07;25.70;;;8.20;;
4278;SDS011;2153;47.744;10.580;2022-07-10T09:53:36;17.57;;;6.10;;
4278;SDS011;2153;47.744;10.580;2022-07-10T09:56:06;20.50;;;6.60;;
4278;SDS011;2153;47.744;10.580;2022-07-10T09:58:34;17.13;;;5.90;;
4278;SDS011;2153;47.744;10.580;2022-07-10T10:01:02;18.63;;;5.57;;
4278;SDS011;2153;47.744;10.580;2022-07-10T10:03:33;15.60;;;5.70;;
4278;SDS011;2153;47.744;10.580;2022-07-10T10:06:04;19.00;;;5.20;;
4278;SDS011;2153;47.744;10.580;2022-07-10T10:08:37;16.57;;;5.10;;
4278;SDS011;2153;47.744;10.580;2022-07-10T10:11:14;13.87;;;4.20;;
4278;SDS011;2153;47.744;10.580;2022-07-10T10:13:45;14.40;;;4.37;;
4278;SDS011;2153;47.744;10.580;2022-07-10T10:16:12;15.30;;;4.33;;
4278;SDS011;2153;47.744;10.580;2022-07-10T10:18:41;15.93;;;4.17;;
4278;SDS011;2153;47.744;10.580;2022-07-10T10:21:23;14.57;;;3.83;;
4278;SDS011;2153;47.744;10.580;2022-07-10T10:23:51;13.53;;;3.50;;
4278;SDS011;2153;47.744;10.580;2022-07-10T10:26:19;14.43;;;4.03;;
4278;SDS011;2153;47.744;10.580;2022-07-10T10:28:47;15.50;;;3.87;;
4278;SDS011;2153;47.744;10.580;2022-07-10T10:31:14;18.97;;;4.20;;
4278;SDS011;2153;47.744;10.580;2022-07-10T10:33:46;17.13;;;3.67;;
4278;SDS011;2153;47.744;10.580;2022-07-10T10:36:14;13.37;;;3.17;;
4278;SDS011;2153;47.744;10.580;2022-07-10T10:39:02;15.87;;;3.13;;
4278;SDS011;2153;47.744;10.580;2022-07-10T10:41:38;16.67;;;3.50;;
4278;SDS011;2153;47.744;10.580;2022-07-10T10:44:20;12.10;;;3.10;;
4278;SDS011;2153;47.744;10.580;2022-07-10T10:46:58;12.30;;;3.10;;
4278;SDS011;2153;47.744;10.580;2022-07-10T10:49:51;12.73;;;3.23;;
4278;SDS011;2153;47.744;10.580;2022-07-10T10:52:20;16.87;;;3.40;;
4278;SDS011;2153;47.744;10.580;2022-07-10T10:55:01;14.10;;;3.30;;
4278;SDS011;2153;47.744;10.580;2022-07-10T10:57:35;13.07;;;3.37;;
4278;SDS011;2153;47.744;10.580;2022-07-10T11:00:05;13.13;;;2.90;;
4278;SDS011;2153;47.744;10.580;2022-07-10T11:02:34;14.50;;;3.37;;
4278;SDS011;2153;47.744;10.580;2022-07-10T11:08:08;12.57;;;2.87;;
4278;SDS011;2153;47.744;10.580;2022-07-10T11:10:35;13.77;;;3.40;;
4278;SDS011;2153;47.744;10.580;2022-07-10T11:13:03;15.37;;;3.30;;
4278;SDS011;2153;47.744;10.580;2022-07-10T11:15:33;13.80;;;3.70;;
4278;SDS011;2153;47.744;10.580;2022-07-10T11:18:05;13.93;;;3.20;;
4278;SDS011;2153;47.744;10.580;2022-07-10T11:20:33;14.27;;;3.23;;
4278;SDS011;2153;47.744;10.580;2022-07-10T11:23:08;13.57;;;2.90;;
4278;SDS011;2153;47.744;10.580;2022-07-10T11:25:49;13.13;;;3.00;;
4278;SDS011;2153;47.744;10.580;2022-07-10T11:28:28;12.70;;;2.83;;
4278;SDS011;2153;47.744;10.580;2022-07-10T11:31:04;15.60;;;3.37;;
4278;SDS011;2153;47.744;10.580;2022-07-10T11:33:37;14.07;;;2.87;;
4278;SDS011;2153;47.744;10.580;2022-07-10T11:36:09;13.57;;;3.53;;
4278;SDS011;2153;47.744;10.580;2022-07-10T11:38:39;12.93;;;3.10;;
4278;SDS011;2153;47.744;10.580;2022-07-10T11:41:13;16.63;;;3.07;;
4278;SDS011;2153;47.744;10.580;2022-07-10T11:43:50;13.23;;;2.73;;
4278;SDS011;2153;47.744;10.580;2022-07-10T11:46:19;12.57;;;2.73;;
4278;SDS011;2153;47.744;10.580;2022-07-10T11:48:47;15.63;;;3.00;;
4278;SDS011;2153;47.744;10.580;2022-07-10T11:51:24;12.90;;;2.97;;
4278;SDS011;2153;47.744;10.580;2022-07-10T11:53:54;15.90;;;3.20;;
4278;SDS011;2153;47.744;10.580;2022-07-10T11:56:22;12.33;;;2.60;;
4278;SDS011;2153;47.744;10.580;2022-07-10T11:58:59;14.33;;;2.43;;
4278;SDS011;2153;47.744;10.580;2022-07-10T12:01:27;15.43;;;2.77;;
4278;SDS011;2153;47.744;10.580;2022-07-10T12:03:57;12.40;;;2.23;;
4278;SDS011;2153;47.744;10.580;2022-07-10T12:06:26;16.23;;;3.43;;
4278;SDS011;2153;47.744;10.580;2022-07-10T12:08:55;12.40;;;2.40;;
4278;SDS011;2153;47.744;10.580;2022-07-10T12:11:22;16.33;;;2.70;;
4278;SDS011;2153;47.744;10.580;2022-07-10T12:13:50;12.17;;;2.33;;
4278;SDS011;2153;47.744;10.580;2022-07-10T12:16:18;12.47;;;2.77;;
4278;SDS011;2153;47.744;10.580;2022-07-10T12:18:46;12.97;;;2.47;;
4278;SDS011;2153;47.744;10.580;2022-07-10T12:21:14;13.83;;;2.10;;
4278;SDS011;2153;47.744;10.580;2022-07-10T12:23:42;12.53;;;2.43;;
4278;SDS011;2153;47.744;10.580;2022-07-10T12:26:12;14.10;;;3.00;;
4278;SDS011;2153;47.744;10.580;2022-07-10T12:28:49;11.57;;;2.50;;
4278;SDS011;2153;47.744;10.580;2022-07-10T12:31:24;13.20;;;2.47;;
4278;SDS011;2153;47.744;10.580;2022-07-10T12:33:53;17.03;;;2.40;;
4278;SDS011;2153;47.744;10.580;2022-07-10T12:36:23;13.60;;;2.30;;
4278;SDS011;2153;47.744;10.580;2022-07-10T12:38:56;13.40;;;2.33;;
4278;SDS011;2153;47.744;10.580;2022-07-10T12:41:25;12.43;;;1.90;;
4278;SDS011;2153;47.744;10.580;2022-07-10T12:43:52;11.90;;;2.17;;
4278;SDS011;2153;47.744;10.580;2022-07-10T12:46:20;14.20;;;2.33;;
4278;SDS011;2153;47.744;10.580;2022-07-10T12:49:00;16.23;;;1.87;;
4278;SDS011;2153;47.744;10.580;2022-07-10T12:51:29;11.20;;;2.00;;
4278;SDS011;2153;47.744;10.580;2022-07-10T12:53:57;11.93;;;2.00;;
4278;SDS011;2153;47.744;10.580;2022-07-10T12:56:28;12.87;;;2.10;;
4278;SDS011;2153;47.744;10.580;2022-07-10T12:58:57;13.10;;;2.13;;
4278;SDS011;2153;47.744;10.580;2022-07-10T13:01:24;12.20;;;2.20;;
4278;SDS011;2153;47.744;10.580;2022-07-10T13:03:59;12.53;;;2.47;;
4278;SDS011;2153;47.744;10.580;2022-07-10T13:06:27;11.50;;;1.77;;
4278;SDS011;2153;47.744;10.580;2022-07-10T13:08:55;14.80;;;2.10;;
4278;SDS011;2153;47.744;10.580;2022-07-10T13:11:22;13.03;;;1.90;;
4278;SDS011;2153;47.744;10.580;2022-07-10T13:13:50;11.60;;;1.97;;
4278;SDS011;2153;47.744;10.580;2022-07-10T13:16:17;11.90;;;2.00;;
4278;SDS011;2153;47.744;10.580;2022-07-10T13:18:44;12.13;;;2.30;;
4278;SDS011;2153;47.744;10.580;2022-07-10T13:21:11;11.37;;;1.80;;
4278;SDS011;2153;47.744;10.580;2022-07-10T13:23:38;13.13;;;2.10;;
4278;SDS011;2153;47.744;10.580;2022-07-10T13:26:06;11.40;;;2.10;;
4278;SDS011;2153;47.744;10.580;2022-07-10T13:28:34;12.13;;;2.00;;
4278;SDS011;2153;47.744;10.580;2022-07-10T13:31:02;12.00;;;2.00;;
4278;SDS011;2153;47.744;10.580;2022-07-10T13:33:29;13.20;;;2.10;;
4278;SDS011;2153;47.744;10.580;2022-07-10T13:35:58;13.27;;;1.90;;
4278;SDS011;2153;47.744;10.580;2022-07-10T13:38:25;13.47;;;2.50;;
4278;SDS011;2153;47.744;10.580;2022-07-10T13:40:52;13.80;;;2.20;;
4278;SDS011;2153;47.744;10.580;2022-07-10T13:43:19;11.50;;;1.97;;
4278;SDS011;2153;47.744;10.580;2022-07-10T13:45:46;14.53;;;2.20;;
4278;SDS011;2153;47.744;10.580;2022-07-10T13:48:14;11.57;;;1.83;;
4278;SDS011;2153;47.744;10.580;2022-07-10T13:50:42;13.80;;;2.57;;
4278;SDS011;2153;47.744;10.580;2022-07-10T13:53:12;11.70;;;1.90;;
4278;SDS011;2153;47.744;10.580;2022-07-10T13:55:39;15.00;;;1.97;;
4278;SDS011;2153;47.744;10.580;2022-07-10T13:58:05;13.10;;;2.23;;
4278;SDS011;2153;47.744;10.580;2022-07-10T14:00:33;12.17;;;2.33;;
4278;SDS011;2153;47.744;10.580;2022-07-10T14:03:00;11.90;;;1.90;;
4278;SDS011;2153;47.744;10.580;2022-07-10T14:05:29;13.10;;;1.90;;
4278;SDS011;2153;47.744;10.580;2022-07-10T14:07:57;12.17;;;2.13;;
4278;SDS011;2153;47.744;10.580;2022-07-10T14:10:24;13.70;;;1.90;;
4278;SDS011;2153;47.744;10.580;2022-07-10T14:12:51;11.63;;;2.03;;
4278;SDS011;2153;47.744;10.580;2022-07-10T14:15:19;11.70;;;1.80;;
4278;SDS011;2153;47.744;10.580;2022-07-10T14:17:46;11.80;;;1.80;;
4278;SDS011;2153;47.744;10.580;2022-07-10T14:20:13;11.37;;;1.90;;
4278;SDS011;2153;47.744;10.580;2022-07-10T14:22:41;11.23;;;1.77;;
4278;SDS011;2153;47.744;10.580;2022-07-10T14:25:10;12.47;;;2.10;;
4278;SDS011;2153;47.744;10.580;2022-07-10T14:27:38;14.00;;;2.03;;
4278;SDS011;2153;47.744;10.580;2022-07-10T14:30:05;14.37;;;1.90;;
4278;SDS011;2153;47.744;10.580;2022-07-10T14:32:33;13.27;;;1.80;;
4278;SDS011;2153;47.744;10.580;2022-07-10T14:35:00;25.87;;;1.80;;
4278;SDS011;2153;47.744;10.580;2022-07-10T14:37:27;12.33;;;2.37;;
4278;SDS011;2153;47.744;10.580;2022-07-10T14:39:55;13.40;;;1.60;;
4278;SDS011;2153;47.744;10.580;2022-07-10T14:42:22;14.33;;;2.03;;
4278;SDS011;2153;47.744;10.580;2022-07-10T14:44:48;14.93;;;2.20;;
4278;SDS011;2153;47.744;10.580;2022-07-10T14:47:15;13.03;;;1.90;;
4278;SDS011;2153;47.744;10.580;2022-07-10T14:49:42;14.30;;;2.03;;
4278;SDS011;2153;47.744;10.580;2022-07-10T14:52:08;12.70;;;1.80;;
4278;SDS011;2153;47.744;10.580;2022-07-10T14:54:35;13.37;;;1.70;;
4278;SDS011;2153;47.744;10.580;2022-07-10T14:57:04;11.43;;;1.80;;
4278;SDS011;2153;47.744;10.580;2022-07-10T14:59:31;13.97;;;2.60;;